Time;durP1;ratioP1;P1;durP2;ratioP2;P2;SDS_P1;SDS_P2;PMS_P1;PMS_P2;Temp;Humidity;BMP_temperature;BMP_pressure;BME280_temperature;BME280_humidity;BME280_pressure;Samples;Min_cycle;Max_cycle;Signal;HPM_P1;HPM_P2
2023/03/13 00:02:12;;;;;;;26.17;9.52;;;15.80;80.00;;;;;;5079468;22;20048;-79
2023/03/13 00:04:37;;;;;;;23.83;9.55;;;15.70;79.90;;;;;;5073289;28;20100;-79
2023/03/13 00:07:03;;;;;;;28.60;8.80;;;15.70;80.30;;;;;;5073144;28;20402;-80
2023/03/13 00:09:29;;;;;;;28.60;9.75;;;15.60;80.30;;;;;;5073023;28;20087;-79
2023/03/13 00:11:55;;;;;;;26.42;8.77;;;15.60;80.40;;;;;;5072968;28;20028;-80
2023/03/13 00:14:37;;;;;;;30.30;10.20;;;15.60;80.30;;;;;;5073164;28;20039;-79
2023/03/13 00:17:02;;;;;;;24.35;9.15;;;15.50;80.70;;;;;;5072971;28;20028;-79
2023/03/13 00:19:28;;;;;;;29.45;8.55;;;15.50;81.00;;;;;;5073600;28;20032;-80
2023/03/13 00:21:54;;;;;;;27.33;9.43;;;15.50;80.90;;;;;;5074306;28;20025;-79
2023/03/13 00:24:19;;;;;;;27.92;9.85;;;15.50;81.00;;;;;;5074603;28;20178;-80
2023/03/13 00:26:45;;;;;;;29.85;9.70;;;15.50;81.00;;;;;;5072737;28;20590;-80
2023/03/13 00:29:11;;;;;;;29.45;8.98;;;15.50;81.00;;;;;;5073300;28;20094;-79
2023/03/13 00:31:36;;;;;;;22.92;9.90;;;15.50;81.10;;;;;;5074275;28;20040;-79
2023/03/13 00:34:02;;;;;;;27.27;10.20;;;15.50;80.90;;;;;;5073040;28;20099;-79
2023/03/13 00:36:31;;;;;;;25.20;9.88;;;15.40;80.80;;;;;;5072713;28;20112;-80
2023/03/13 00:38:58;;;;;;;24.88;10.20;;;15.40;80.70;;;;;;5072534;28;20044;-80
2023/03/13 00:41:26;;;;;;;30.73;10.27;;;15.40;80.80;;;;;;5072747;28;20036;-78
2023/03/13 00:43:52;;;;;;;30.50;11.20;;;15.40;80.70;;;;;;5072819;28;20064;-79
2023/03/13 00:46:21;;;;;;;23.98;10.02;;;15.30;80.60;;;;;;5072764;28;20076;-79
2023/03/13 00:48:47;;;;;;;26.88;9.65;;;15.30;80.60;;;;;;5072865;28;20055;-79
2023/03/13 00:51:15;;;;;;;26.23;9.32;;;15.30;80.70;;;;;;5072783;28;20119;-79
2023/03/13 00:53:42;;;;;;;22.38;8.98;;;15.30;80.90;;;;;;5054319;28;20039;-80
2023/03/13 00:56:11;;;;;;;28.30;10.73;;;15.30;81.00;;;;;;5054728;28;20470;-79
2023/03/13 00:58:39;;;;;;;33.75;10.48;;;15.20;80.90;;;;;;5072507;28;20087;-79
2023/03/13 01:01:13;;;;;;;27.10;10.27;;;15.20;80.90;;;;;;5072403;28;20028;-79
2023/03/13 01:03:40;;;;;;;24.52;9.50;;;15.20;81.00;;;;;;5072917;28;20048;-80
2023/03/13 01:06:11;;;;;;;26.23;10.13;;;15.10;81.00;;;;;;5074354;28;20051;-79
2023/03/13 01:08:37;;;;;;;25.17;9.98;;;15.20;80.90;;;;;;5076358;28;20032;-78
2023/03/13 01:11:06;;;;;;;28.38;10.10;;;15.10;80.80;;;;;;5077028;28;20028;-79
2023/03/13 01:13:32;;;;;;;28.23;10.13;;;15.00;80.70;;;;;;5076607;28;20086;-80
2023/03/13 01:16:06;;;;;;;25.15;9.90;;;14.90;80.70;;;;;;5076235;28;20115;-79
2023/03/13 01:18:35;;;;;;;;;;;14.80;80.90;;;;;;5077081;28;20110;-77
2023/03/13 01:21:01;;;;;;;19.50;9.70;;;14.80;80.90;;;;;;5076272;28;19943;-79
2023/03/13 01:23:27;;;;;;;23.17;9.65;;;14.70;80.40;;;;;;5076497;28;20103;-79
2023/03/13 01:25:57;;;;;;;18.88;9.45;;;14.70;80.50;;;;;;5076518;28;20448;-80
2023/03/13 01:28:24;;;;;;;22.30;9.15;;;14.70;80.40;;;;;;5076233;28;20041;-79
2023/03/13 01:30:50;;;;;;;22.75;9.85;;;14.70;80.50;;;;;;5075902;28;20373;-78
2023/03/13 01:33:16;;;;;;;23.00;9.05;;;14.70;80.40;;;;;;5076126;28;20063;-78
2023/03/13 01:35:42;;;;;;;23.33;9.48;;;14.70;80.20;;;;;;5076119;28;20075;-78
2023/03/13 01:38:08;;;;;;;23.77;9.00;;;14.70;80.20;;;;;;5075978;28;20104;-79
2023/03/13 01:40:45;;;;;;;19.75;7.97;;;14.60;80.30;;;;;;5075952;28;20111;-78
2023/03/13 01:43:23;;;;;;;20.63;8.10;;;14.70;80.30;;;;;;5075587;28;20469;-78
2023/03/13 01:46:12;;;;;;;20.17;8.93;;;14.70;80.30;;;;;;5075523;28;20036;-79
2023/03/13 01:48:59;;;;;;;19.60;9.02;;;14.70;80.00;;;;;;5076398;28;20029;-79
2023/03/13 01:51:37;;;;;;;19.70;9.10;;;14.70;79.90;;;;;;5077979;28;20033;-79
2023/03/13 01:54:18;;;;;;;19.52;8.75;;;14.70;79.90;;;;;;5076098;28;20038;-79
2023/03/13 01:56:55;;;;;;;16.92;8.27;;;14.60;80.40;;;;;;5075968;28;20032;-79
2023/03/13 01:59:29;;;;;;;19.20;8.45;;;14.60;80.20;;;;;;5076158;28;20043;-80
2023/03/13 02:01:57;;;;;;;19.58;8.93;;;14.60;79.60;;;;;;5076747;28;20135;-78
2023/03/13 02:04:26;;;;;;;17.73;8.10;;;14.50;79.50;;;;;;5076310;28;20067;-78
2023/03/13 02:06:56;;;;;;;20.83;8.35;;;14.50;79.50;;;;;;5075467;28;20072;-79
2023/03/13 02:09:25;;;;;;;20.35;8.20;;;14.50;79.70;;;;;;5075110;28;20463;-79
2023/03/13 02:12:03;;;;;;;21.88;9.10;;;14.50;79.30;;;;;;5075332;28;20480;-78
2023/03/13 02:14:32;;;;;;;25.08;12.05;;;14.50;79.10;;;;;;5075348;28;20052;-78
2023/03/13 02:16:59;;;;;;;23.48;9.10;;;14.50;79.10;;;;;;5074998;28;20428;-78
2023/03/13 02:19:43;;;;;;;21.08;9.75;;;14.40;78.80;;;;;;5059462;28;20044;-78
2023/03/13 02:22:26;;;;;;;22.10;8.60;;;14.30;79.00;;;;;;5078124;28;20064;-78
2023/03/13 02:25:25;;;;;;;20.52;9.45;;;14.30;79.00;;;;;;5075521;28;20032;-79
2023/03/13 02:28:02;;;;;;;19.88;9.45;;;14.20;78.60;;;;;;5075063;28;20120;-78
2023/03/13 02:30:28;;;;;;;18.60;8.75;;;14.20;78.70;;;;;;5074963;28;20028;-79
2023/03/13 02:32:54;;;;;;;18.63;8.77;;;14.20;78.70;;;;;;5074716;28;20032;-78
2023/03/13 02:35:22;;;;;;;18.42;8.95;;;14.10;78.50;;;;;;5075873;28;20032;-79
2023/03/13 02:37:52;;;;;;;23.33;10.18;;;14.10;78.50;;;;;;5075539;28;20446;-78
2023/03/13 02:40:28;;;;;;;21.63;9.60;;;14.10;78.60;;;;;;5074944;28;20075;-79
2023/03/13 02:42:55;;;;;;;21.63;9.73;;;14.10;78.50;;;;;;5074899;28;20115;-79
2023/03/13 02:45:21;;;;;;;19.73;9.60;;;14.10;78.50;;;;;;5074572;28;20024;-78
2023/03/13 02:47:47;;;;;;;21.45;9.43;;;14.00;78.50;;;;;;5074774;28;20033;-79
2023/03/13 02:50:13;;;;;;;17.40;9.13;;;14.00;78.50;;;;;;5074458;28;20086;-72
2023/03/13 02:52:47;;;;;;;21.85;9.00;;;14.10;78.60;;;;;;5074675;28;20510;-78
2023/03/13 02:55:16;;;;;;;;;;;14.10;78.40;;;;;;5057027;28;20029;-79
2023/03/13 02:57:42;;;;;;;17.65;8.98;;;14.00;78.40;;;;;;5074858;28;19916;-79
2023/03/13 03:00:11;;;;;;;19.23;9.13;;;14.00;78.20;;;;;;5074378;28;20032;-79
2023/03/13 03:02:37;;;;;;;17.85;8.85;;;13.90;78.20;;;;;;5074463;28;20112;-79
2023/03/13 03:05:04;;;;;;;20.80;9.88;;;13.90;78.20;;;;;;5056313;28;20032;-79
2023/03/13 03:07:30;;;;;;;18.67;9.23;;;13.90;78.30;;;;;;5073998;28;20175;-78
2023/03/13 03:09:55;;;;;;;22.40;9.18;;;13.90;78.30;;;;;;5074600;28;20028;-79
2023/03/13 03:12:21;;;;;;;20.13;8.68;;;13.90;78.10;;;;;;5056007;28;20032;-77
2023/03/13 03:14:47;;;;;;;18.60;8.60;;;13.80;78.90;;;;;;5074053;28;20036;-78
2023/03/13 03:17:13;;;;;;;15.57;8.30;;;13.80;78.30;;;;;;5073901;28;20036;-78
2023/03/13 03:19:38;;;;;;;21.88;8.95;;;13.80;78.40;;;;;;5073983;28;20039;-78
2023/03/13 03:22:04;;;;;;;17.58;8.80;;;13.80;78.50;;;;;;5075661;28;20392;-79
2023/03/13 03:24:30;;;;;;;19.92;8.20;;;13.80;78.40;;;;;;5077709;28;20119;-79
2023/03/13 03:26:55;;;;;;;19.90;8.50;;;13.80;78.50;;;;;;5074226;28;20456;-78
2023/03/13 03:29:21;;;;;;;16.95;8.75;;;13.70;78.70;;;;;;5073741;28;20370;-78
2023/03/13 03:31:47;;;;;;;15.60;7.95;;;13.70;78.60;;;;;;5073017;28;20107;-78
2023/03/13 03:34:13;;;;;;;21.17;8.93;;;13.70;78.90;;;;;;5073657;28;20114;-78
2023/03/13 03:36:38;;;;;;;21.38;8.82;;;13.60;78.80;;;;;;5055811;28;20476;-77
2023/03/13 03:39:04;;;;;;;17.35;8.82;;;13.60;78.80;;;;;;5073705;28;20040;-78
2023/03/13 03:41:30;;;;;;;15.82;7.93;;;13.60;79.00;;;;;;5073834;28;20033;-78
2023/03/13 03:43:56;;;;;;;16.88;8.30;;;13.60;79.00;;;;;;5074052;28;20024;-80
2023/03/13 03:46:21;;;;;;;21.77;9.07;;;13.60;79.00;;;;;;5055842;28;20041;-78
2023/03/13 03:48:47;;;;;;;21.80;8.30;;;13.50;79.00;;;;;;5075054;28;20025;-78
2023/03/13 03:51:13;;;;;;;18.67;8.82;;;13.50;79.00;;;;;;5076714;28;20033;-77
2023/03/13 03:53:39;;;;;;;22.17;8.68;;;13.50;79.20;;;;;;5075163;28;20029;-78
2023/03/13 03:56:05;;;;;;;20.20;8.40;;;13.40;79.10;;;;;;5073868;28;20064;-78
2023/03/13 03:58:31;;;;;;;20.08;9.82;;;13.50;79.30;;;;;;5073635;28;20043;-79
2023/03/13 04:00:57;;;;;;;21.25;9.45;;;13.50;79.10;;;;;;5073380;28;20045;-79
2023/03/13 04:03:24;;;;;;;18.58;9.30;;;13.40;79.10;;;;;;5073420;28;20126;-78
2023/03/13 04:05:49;;;;;;;24.05;9.80;;;13.40;79.10;;;;;;5073627;28;20044;-78
2023/03/13 04:08:15;;;;;;;19.08;8.80;;;13.30;79.40;;;;;;5074766;28;20515;-79
2023/03/13 04:10:41;;;;;;;18.83;9.77;;;13.30;79.40;;;;;;5059468;28;20055;-80
2023/03/13 04:13:07;;;;;;;19.83;8.70;;;13.30;79.40;;;;;;5073804;28;20032;-79
2023/03/13 04:15:33;;;;;;;20.52;9.30;;;13.20;79.60;;;;;;5055040;28;20070;-79
2023/03/13 04:17:59;;;;;;;23.77;9.20;;;13.20;79.70;;;;;;5073238;28;20056;-79
2023/03/13 04:20:24;;;;;;;19.88;9.32;;;13.20;79.80;;;;;;5055148;28;20028;-78
2023/03/13 04:22:50;;;;;;;19.00;9.48;;;13.10;79.70;;;;;;5054896;28;20392;-79
2023/03/13 04:25:16;;;;;;;17.95;9.65;;;13.10;79.80;;;;;;5072873;28;20478;-79
2023/03/13 04:27:42;;;;;;;20.10;9.45;;;13.10;79.80;;;;;;5072938;28;20086;-79
2023/03/13 04:30:08;;;;;;;21.02;8.98;;;13.20;79.80;;;;;;5072819;28;20032;-77
2023/03/13 04:32:34;;;;;;;18.15;9.38;;;13.10;79.70;;;;;;5072543;28;20518;-79
2023/03/13 04:35:00;;;;;;;17.92;8.43;;;13.10;79.80;;;;;;5072730;28;20025;-79
2023/03/13 04:37:25;;;;;;;16.15;8.07;;;13.10;79.90;;;;;;5072719;28;20032;-79
2023/03/13 04:39:51;;;;;;;15.35;7.75;;;13.10;79.90;;;;;;5072803;28;20055;-78
2023/03/13 04:42:17;;;;;;;14.30;7.18;;;13.20;79.60;;;;;;5072560;28;20047;-80
2023/03/13 04:44:42;;;;;;;18.50;7.88;;;13.20;79.50;;;;;;5072290;28;20112;-79
2023/03/13 04:47:08;;;;;;;14.70;7.50;;;13.20;79.50;;;;;;5054612;28;20403;-79
2023/03/13 04:49:34;;;;;;;16.75;7.47;;;13.20;79.50;;;;;;5072817;28;20048;-79
2023/03/13 04:52:00;;;;;;;21.40;8.60;;;13.10;79.50;;;;;;5072574;28;20032;-77
2023/03/13 04:54:25;;;;;;;15.60;7.57;;;13.00;79.60;;;;;;5074237;28;20020;-78
2023/03/13 04:56:51;;;;;;;17.73;7.97;;;12.90;79.30;;;;;;5073937;28;20037;-78
2023/03/13 04:59:17;;;;;;;15.23;7.70;;;12.90;79.50;;;;;;5056013;28;20024;-79
2023/03/13 05:01:43;;;;;;;15.48;6.90;;;12.80;79.40;;;;;;5073154;28;20080;-79
2023/03/13 05:04:09;;;;;;;16.48;8.00;;;12.80;79.40;;;;;;5072438;28;20029;-78
2023/03/13 05:06:35;;;;;;;17.02;8.40;;;12.80;79.60;;;;;;5072162;28;20473;-79
2023/03/13 05:09:02;;;;;;;17.33;7.65;;;12.80;79.60;;;;;;5072599;28;20159;-78
2023/03/13 05:11:28;;;;;;;15.07;8.02;;;12.80;79.50;;;;;;5072407;28;20082;-79
2023/03/13 05:13:54;;;;;;;17.85;7.40;;;12.80;79.40;;;;;;5072467;28;20040;-79
2023/03/13 05:16:19;;;;;;;19.30;7.28;;;12.90;79.70;;;;;;5054739;28;20044;-77
2023/03/13 05:18:45;;;;;;;14.27;7.15;;;12.90;79.50;;;;;;5073069;28;20035;-77
2023/03/13 05:21:11;;;;;;;22.88;7.43;;;12.90;79.30;;;;;;5074088;28;20033;-79
2023/03/13 05:23:37;;;;;;;15.13;7.00;;;12.80;79.40;;;;;;5093847;28;20028;-78
2023/03/13 05:26:02;;;;;;;15.07;6.35;;;12.80;79.30;;;;;;5090977;28;20052;-78
2023/03/13 05:28:28;;;;;;;14.68;6.25;;;12.80;79.50;;;;;;5073270;28;20056;-78
2023/03/13 05:30:54;;;;;;;16.70;6.97;;;12.80;79.30;;;;;;5072744;28;20451;-78
2023/03/13 05:33:19;;;;;;;12.60;6.50;;;12.80;79.30;;;;;;5072567;28;20090;-79
2023/03/13 05:35:46;;;;;;;19.45;7.10;;;12.90;79.30;;;;;;5072298;28;20035;-78
2023/03/13 05:38:12;;;;;;;18.58;6.78;;;12.90;79.10;;;;;;5072236;28;20118;-80
2023/03/13 05:40:38;;;;;;;14.50;6.95;;;13.00;79.00;;;;;;5073529;28;20057;-78
2023/03/13 05:43:04;;;;;;;11.75;5.97;;;13.00;79.00;;;;;;5072975;28;20500;-78
2023/03/13 05:45:30;;;;;;;18.80;6.78;;;13.10;78.70;;;;;;5072678;28;20169;-78
2023/03/13 05:47:57;;;;;;;18.48;6.85;;;13.10;78.60;;;;;;5072487;28;20033;-79
2023/03/13 05:50:23;;;;;;;17.50;6.15;;;13.10;78.70;;;;;;5072242;28;20436;-78
2023/03/13 05:52:49;;;;;;;13.27;6.10;;;13.10;78.50;;;;;;5072184;28;20035;-80
2023/03/13 05:55:15;;;;;;;15.80;6.85;;;13.20;78.70;;;;;;5072687;28;20032;-79
2023/03/13 05:57:45;;;;;;;17.13;6.70;;;13.20;78.60;;;;;;5076096;28;20035;-78
2023/03/13 06:00:12;;;;;;;15.13;6.85;;;13.20;78.40;;;;;;5076253;28;20036;-79
2023/03/13 06:02:38;;;;;;;16.17;6.32;;;13.20;78.40;;;;;;5075592;28;20032;-79
2023/03/13 06:05:04;;;;;;;18.42;6.78;;;13.30;78.10;;;;;;5075212;28;20115;-79
2023/03/13 06:07:30;;;;;;;15.35;6.50;;;13.30;78.00;;;;;;5075570;28;20033;-79
2023/03/13 06:09:56;;;;;;;16.80;8.32;;;13.30;77.80;;;;;;5075814;28;20040;-80
2023/03/13 06:12:21;;;;;;;13.73;6.32;;;13.30;77.80;;;;;;5075432;28;20079;-79
2023/03/13 06:14:47;;;;;;;15.05;5.47;;;13.40;77.80;;;;;;5057406;28;20384;-78
2023/03/13 06:17:13;;;;;;;13.32;6.10;;;13.40;77.40;;;;;;5057394;28;20040;-79
2023/03/13 06:19:39;;;;;;;16.05;5.47;;;13.40;77.40;;;;;;5075302;28;20037;-80
2023/03/13 06:22:04;;;;;;;15.43;6.38;;;13.40;77.00;;;;;;5076583;28;20056;-80
2023/03/13 06:24:30;;;;;;;9.77;5.35;;;13.50;76.70;;;;;;5082573;28;20033;-79
2023/03/13 06:26:56;;;;;;;16.52;8.52;;;13.50;76.70;;;;;;5075688;28;20095;-79
2023/03/13 06:29:23;;;;;;;11.63;6.30;;;13.60;76.60;;;;;;5075814;28;20033;-80
2023/03/13 06:31:49;;;;;;;16.80;7.13;;;13.80;76.40;;;;;;5075276;28;20038;-79
2023/03/13 06:34:16;;;;;;;17.75;6.47;;;13.90;76.30;;;;;;5075740;28;20035;-78
2023/03/13 06:36:41;;;;;;;17.48;6.57;;;14.00;76.10;;;;;;5075640;28;20032;-78
2023/03/13 06:39:08;;;;;;;15.93;7.50;;;14.30;75.90;;;;;;5075566;28;20032;-78
2023/03/13 06:41:34;;;;;;;15.32;6.72;;;14.40;75.70;;;;;;5075273;28;20137;-78
2023/03/13 06:43:59;;;;;;;14.15;6.93;;;14.50;75.30;;;;;;5074927;28;20028;-78
2023/03/13 06:46:25;;;;;;;16.58;8.25;;;14.70;75.10;;;;;;5075045;28;20041;-81
2023/03/13 06:48:51;;;;;;;21.50;8.30;;;14.80;75.00;;;;;;5074637;28;20123;-78
2023/03/13 06:51:20;;;;;;;17.63;7.93;;;14.90;74.50;;;;;;5074454;28;20116;-78
2023/03/13 06:53:46;;;;;;;16.98;6.53;;;14.90;74.30;;;;;;5074522;28;20025;-79
2023/03/13 06:56:13;;;;;;;13.27;6.40;;;14.90;74.40;;;;;;5074592;28;20383;-79
2023/03/13 06:58:39;;;;;;;15.13;6.55;;;14.90;73.90;;;;;;5074689;28;20489;-80
2023/03/13 07:01:16;;;;;;;25.52;7.05;;;15.10;73.60;;;;;;5074519;28;20039;-79
2023/03/13 07:03:42;;;;;;;20.13;7.55;;;15.20;73.40;;;;;;5074770;28;20052;-79
2023/03/13 07:06:08;;;;;;;18.77;7.38;;;15.30;72.70;;;;;;5074616;28;20121;-80
2023/03/13 07:08:35;;;;;;;19.15;7.40;;;15.40;72.10;;;;;;5076587;28;20086;-79
2023/03/13 07:11:03;;;;;;;22.55;7.65;;;15.50;72.30;;;;;;5076501;28;20036;-79
2023/03/13 07:13:30;;;;;;;16.60;7.53;;;15.60;71.90;;;;;;5074659;28;20039;-79
2023/03/13 07:15:59;;;;;;;30.60;7.97;;;15.70;71.90;;;;;;5074518;28;20056;-79
2023/03/13 07:18:25;;;;;;;17.90;7.25;;;15.90;71.80;;;;;;5074153;28;20040;-79
2023/03/13 07:20:56;;;;;;;18.50;8.07;;;15.90;71.40;;;;;;5073923;28;20043;-79
2023/03/13 07:23:23;;;;;;;17.60;8.43;;;15.90;71.40;;;;;;5074100;28;20381;-79
2023/03/13 07:25:57;;;;;;;19.50;8.70;;;16.00;71.10;;;;;;5073568;28;20107;-79
2023/03/13 07:28:24;;;;;;;22.98;8.18;;;16.00;71.30;;;;;;5073593;28;20036;-78
2023/03/13 07:30:51;;;;;;;20.10;8.80;;;16.10;71.60;;;;;;5074047;28;20056;-79
2023/03/13 07:33:17;;;;;;;20.40;8.30;;;16.30;71.10;;;;;;5073781;28;20052;-80
2023/03/13 07:35:52;;;;;;;20.30;9.23;;;16.40;71.10;;;;;;5073831;28;20047;-79
2023/03/13 07:38:18;;;;;;;22.95;9.10;;;16.40;70.80;;;;;;5074428;28;20040;-79
2023/03/13 07:40:52;;;;;;;16.35;8.95;;;16.50;70.60;;;;;;5074182;28;20025;-79
2023/03/13 07:43:18;;;;;;;;;;;16.60;70.90;;;;;;5057735;28;20047;-78
2023/03/13 07:45:58;;;;;;;18.38;8.43;;;16.70;69.90;;;;;;5057652;28;19905;-78
2023/03/13 07:48:29;;;;;;;21.80;9.68;;;16.70;70.00;;;;;;5061619;28;20131;-78
2023/03/13 07:50:56;;;;;;;24.98;9.02;;;16.80;70.70;;;;;;5082251;28;20028;-78
2023/03/13 07:53:22;;;;;;;21.27;8.65;;;16.80;69.60;;;;;;5077219;28;20033;-80
2023/03/13 07:55:59;;;;;;;23.15;9.10;;;16.80;69.70;;;;;;5058891;28;20040;-79
2023/03/13 07:58:30;;;;;;;18.02;8.65;;;16.80;70.20;;;;;;5077996;28;20483;-79
2023/03/13 08:00:57;;;;;;;35.42;9.88;;;16.80;69.20;;;;;;5064373;28;20060;-80
2023/03/13 08:03:23;;;;;;;17.63;8.68;;;16.80;69.40;;;;;;5097478;28;20122;-79
2023/03/13 08:06:19;;;;;;;20.50;8.70;;;16.80;69.30;;;;;;5097657;28;20045;-79
2023/03/13 08:08:45;;;;;;;23.08;7.97;;;16.90;69.00;;;;;;5063155;28;20032;-78
2023/03/13 08:11:35;;;;;;;17.27;7.38;;;16.90;68.80;;;;;;5073874;28;20099;-79
2023/03/13 08:14:01;;;;;;;16.25;8.00;;;17.00;69.70;;;;;;5045501;28;20558;-79
2023/03/13 08:16:29;;;;;;;23.02;9.27;;;17.00;68.60;;;;;;5073405;28;20107;-78
2023/03/13 08:18:57;;;;;;;20.52;8.43;;;17.00;68.50;;;;;;5073060;28;20130;-78
2023/03/13 08:21:29;;;;;;;20.25;7.85;;;17.00;68.50;;;;;;5073314;28;20098;-79
2023/03/13 08:23:58;;;;;;;18.83;8.23;;;17.00;68.50;;;;;;5073696;28;20527;-79
2023/03/13 08:26:26;;;;;;;19.90;8.40;;;17.00;68.40;;;;;;5073204;28;20124;-78
2023/03/13 08:28:54;;;;;;;35.65;9.80;;;17.10;68.50;;;;;;5073378;28;20037;-79
2023/03/13 08:31:23;;;;;;;18.55;8.13;;;17.00;68.20;;;;;;5055470;28;20083;-79
2023/03/13 08:33:49;;;;;;;16.92;8.20;;;17.00;68.20;;;;;;5073928;28;20033;-78
2023/03/13 08:36:16;;;;;;;23.05;9.38;;;16.90;68.10;;;;;;5076479;28;20032;-79
2023/03/13 08:38:46;;;;;;;24.77;8.93;;;16.90;68.20;;;;;;5077167;28;20037;-79
2023/03/13 08:41:13;;;;;;;24.92;9.20;;;17.00;68.70;;;;;;5074360;28;20028;-79
2023/03/13 08:43:39;;;;;;;24.80;9.70;;;17.10;68.30;;;;;;5074685;28;20032;-79
2023/03/13 08:46:05;;;;;;;23.75;9.07;;;17.10;68.10;;;;;;5056162;28;20048;-79
2023/03/13 08:48:30;;;;;;;23.30;9.25;;;17.10;68.00;;;;;;5073902;28;20146;-79
2023/03/13 08:51:07;;;;;;;15.75;8.20;;;17.20;68.00;;;;;;5073596;28;20095;-79
2023/03/13 08:53:34;;;;;;;20.52;8.65;;;17.20;67.70;;;;;;5073738;28;20569;-78
2023/03/13 08:56:00;;;;;;;45.53;10.95;;;17.30;67.80;;;;;;5073472;28;20025;-79
2023/03/13 08:58:26;;;;;;;35.30;8.95;;;17.30;67.60;;;;;;5073642;28;20533;-79
2023/03/13 09:00:53;;;;;;;26.55;8.73;;;17.40;67.80;;;;;;5073885;28;20055;-80
2023/03/13 09:03:19;;;;;;;17.50;6.78;;;17.50;67.70;;;;;;5074084;28;20099;-78
2023/03/13 09:05:47;;;;;;;21.23;7.47;;;17.50;67.50;;;;;;5055564;28;20037;-79
2023/03/13 09:08:14;;;;;;;18.48;6.22;;;17.60;67.60;;;;;;5073499;28;20064;-80
2023/03/13 09:10:40;;;;;;;14.20;7.03;;;17.60;67.80;;;;;;5073237;28;20044;-80
2023/03/13 09:13:06;;;;;;;16.17;6.63;;;17.70;67.50;;;;;;5072772;28;20032;-79
2023/03/13 09:15:32;;;;;;;15.30;6.55;;;17.70;67.30;;;;;;5073163;28;20071;-80
2023/03/13 09:17:58;;;;;;;21.27;7.18;;;17.80;67.60;;;;;;5073581;28;20484;-78
2023/03/13 09:20:23;;;;;;;21.33;7.32;;;17.80;67.30;;;;;;5074164;28;20067;-79
2023/03/13 09:22:49;;;;;;;15.05;6.70;;;17.80;67.20;;;;;;5075926;28;20040;-80
2023/03/13 09:25:15;;;;;;;16.75;6.70;;;17.80;66.80;;;;;;5074175;28;20056;-78
2023/03/13 09:27:41;;;;;;;11.38;5.32;;;17.90;67.40;;;;;;5073728;28;20040;-79
2023/03/13 09:30:07;;;;;;;16.75;5.45;;;17.90;66.50;;;;;;5073685;28;20036;-79
2023/03/13 09:32:33;;;;;;;13.25;5.25;;;18.00;65.90;;;;;;5076919;28;20415;-80
2023/03/13 09:34:59;;;;;;;13.10;5.03;;;18.10;65.80;;;;;;5077342;28;20028;-79
2023/03/13 09:37:25;;;;;;;15.95;5.53;;;18.20;65.40;;;;;;5076924;28;20035;-79
2023/03/13 09:39:51;;;;;;;13.32;4.82;;;18.20;65.00;;;;;;5076713;28;20036;-80
2023/03/13 09:42:24;;;;;;;13.18;4.57;;;18.30;64.80;;;;;;5076307;28;20040;-78
2023/03/13 09:45:14;;;;;;;12.30;4.50;;;18.40;64.20;;;;;;5058326;28;20475;-79
2023/03/13 09:47:53;;;;;;;12.65;4.80;;;18.50;64.20;;;;;;5075390;28;20041;-80
2023/03/13 09:50:46;;;;;;;10.45;4.20;;;18.50;63.40;;;;;;5075677;28;20032;-80
2023/03/13 09:53:25;;;;;;;13.87;3.40;;;18.60;63.40;;;;;;5075887;28;20035;-78
2023/03/13 09:55:51;;;;;;;8.63;3.45;;;18.70;62.50;;;;;;5075495;28;20033;-79
2023/03/13 09:58:22;;;;;;;9.63;3.33;;;18.70;62.00;;;;;;5075393;28;20037;-79
2023/03/13 10:00:53;;;;;;;10.63;3.13;;;18.80;61.70;;;;;;5075678;28;20043;-80
2023/03/13 10:03:30;;;;;;;10.60;3.13;;;18.90;61.50;;;;;;5076810;28;20055;-80
2023/03/13 10:05:59;;;;;;;9.18;3.47;;;18.90;61.40;;;;;;5059175;28;20045;-80
2023/03/13 10:08:28;;;;;;;13.32;3.50;;;19.00;60.80;;;;;;5079679;28;20060;-79
2023/03/13 10:10:57;;;;;;;11.85;3.15;;;19.10;60.60;;;;;;5076760;28;20447;-79
2023/03/13 10:13:46;;;;;;;12.52;4.65;;;19.10;60.40;;;;;;5059278;28;20039;-79
2023/03/13 10:16:37;;;;;;;10.30;3.70;;;19.20;60.80;;;;;;5035602;28;20150;-79
2023/03/13 10:19:13;;;;;;;16.70;4.60;;;19.30;60.60;;;;;;5075304;28;20139;-80
2023/03/13 10:21:40;;;;;;;11.90;4.28;;;19.30;59.80;;;;;;5075303;28;20032;-78
2023/03/13 10:24:41;;;;;;;13.57;3.92;;;19.40;60.10;;;;;;5075544;28;20119;-79
2023/03/13 10:27:08;;;;;;;12.63;4.72;;;19.50;60.00;;;;;;5075324;28;20364;-80
2023/03/13 10:29:34;;;;;;;12.18;3.97;;;19.50;59.70;;;;;;5056792;28;20037;-79
2023/03/13 10:32:02;;;;;;;10.13;4.03;;;19.60;59.80;;;;;;5075327;28;20399;-80
2023/03/13 10:34:45;;;;;;;12.70;4.13;;;19.60;59.30;;;;;;5076414;28;20032;-80
2023/03/13 10:37:15;;;;;;;12.13;4.18;;;19.70;59.40;;;;;;5057952;28;20068;-80
2023/03/13 10:39:41;;;;;;;10.45;3.88;;;19.70;59.40;;;;;;5076906;28;20025;-81
2023/03/13 10:42:18;;;;;;;11.45;4.18;;;19.80;59.40;;;;;;5077804;28;20043;-79
2023/03/13 10:44:44;;;;;;;18.13;4.32;;;19.90;59.50;;;;;;5095227;28;20016;-78
2023/03/13 10:47:13;;;;;;;9.90;3.55;;;19.90;59.50;;;;;;5091758;28;20036;-80
2023/03/13 10:49:51;;;;;;;13.30;4.28;;;20.00;59.50;;;;;;5089421;28;20032;-79
2023/03/13 10:52:33;;;;;;;10.65;3.80;;;20.10;59.50;;;;;;5077128;28;20033;-79
2023/03/13 10:55:05;;;;;;;14.20;4.90;;;20.20;59.50;;;;;;5057717;28;20051;-80
2023/03/13 10:57:36;;;;;;;15.23;4.72;;;20.30;59.70;;;;;;5057570;28;20555;-80
2023/03/13 11:00:37;;;;;;;17.23;4.72;;;20.40;59.80;;;;;;5075035;28;20529;-80
2023/03/13 11:03:20;;;;;;;15.30;4.57;;;20.40;60.00;;;;;;5058080;28;20052;-79
2023/03/13 11:06:04;;;;;;;11.45;4.03;;;20.50;59.80;;;;;;5077097;28;20039;-78
2023/03/13 11:08:40;;;;;;;;;;;20.50;60.40;;;;;;5078864;28;20504;-80
2023/03/13 11:11:18;;;;;;;11.75;3.90;;;20.60;59.80;;;;;;5075171;28;19931;-81
2023/03/13 11:13:44;;;;;;;14.32;4.22;;;20.70;60.00;;;;;;5075103;28;20029;-78
2023/03/13 11:16:28;;;;;;;14.95;3.90;;;20.70;59.90;;;;;;5075334;28;20055;-80
2023/03/13 11:19:06;;;;;;;10.45;3.97;;;20.80;59.90;;;;;;5075063;28;20029;-80
2023/03/13 11:21:56;;;;;;;17.45;5.40;;;20.80;59.90;;;;;;5074713;28;20052;-79
2023/03/13 11:24:43;;;;;;;14.48;4.78;;;20.90;59.50;;;;;;5074705;28;20086;-79
2023/03/13 11:27:35;;;;;;;13.60;4.13;;;21.00;59.40;;;;;;5056601;28;20123;-80
2023/03/13 11:30:16;;;;;;;14.38;4.15;;;21.00;59.00;;;;;;5074582;28;20040;-79
2023/03/13 11:32:52;;;;;;;20.67;5.40;;;21.10;60.20;;;;;;5074766;28;20504;-79
2023/03/13 11:35:43;;;;;;;13.15;4.18;;;21.20;59.40;;;;;;5075822;28;20036;-79
2023/03/13 11:38:27;;;;;;;15.60;3.85;;;21.20;59.90;;;;;;5077451;28;20029;-79
2023/03/13 11:41:31;;;;;;;10.13;3.67;;;21.30;59.50;;;;;;5060811;28;20068;-79
2023/03/13 11:44:05;;;;;;;12.70;3.53;;;21.40;59.40;;;;;;5059016;28;20051;-78
2023/03/13 11:46:52;;;;;;;11.90;4.28;;;21.40;59.00;;;;;;5074764;28;20115;-80
2023/03/13 11:49:48;;;;;;;14.02;4.65;;;21.40;58.80;;;;;;5074854;28;20025;-79
2023/03/13 11:52:23;;;;;;;18.75;4.72;;;21.40;59.10;;;;;;5074771;28;20048;-79
2023/03/13 11:55:15;;;;;;;12.75;4.38;;;21.50;60.00;;;;;;5055666;28;20037;-79
2023/03/13 11:58:09;;;;;;;15.10;4.05;;;21.60;59.70;;;;;;5070099;28;20095;-80
2023/03/13 12:00:43;;;;;;;12.63;3.83;;;21.60;59.10;;;;;;5074312;28;20029;-79
2023/03/13 12:03:37;;;;;;;14.20;4.53;;;21.60;59.10;;;;;;5055658;28;20522;-79
2023/03/13 12:06:04;;;;;;;12.35;3.53;;;21.70;59.10;;;;;;5073216;28;20047;-80
2023/03/13 12:08:45;;;;;;;15.82;4.13;;;21.70;59.50;;;;;;5073246;28;20036;-80
2023/03/13 12:11:27;;;;;;;14.30;3.95;;;21.80;59.10;;;;;;5073319;28;20075;-79
2023/03/13 12:14:17;;;;;;;12.75;3.95;;;21.80;58.90;;;;;;5073331;28;20052;-79
2023/03/13 12:17:04;;;;;;;13.57;4.00;;;21.90;58.70;;;;;;5074144;28;20036;-81
2023/03/13 12:19:51;;;;;;;13.45;3.67;;;21.90;59.50;;;;;;5075205;28;20073;-79
2023/03/13 12:22:27;;;;;;;13.90;3.80;;;21.90;58.10;;;;;;5077459;28;20033;-80
2023/03/13 12:25:00;;;;;;;13.82;3.30;;;21.90;58.00;;;;;;5073191;28;20040;-79
2023/03/13 12:27:34;;;;;;;15.82;4.00;;;21.90;59.30;;;;;;5073305;28;20044;-80
2023/03/13 12:30:02;;;;;;;13.85;4.03;;;21.90;59.30;;;;;;5073093;28;20108;-79
2023/03/13 12:33:09;;;;;;;13.40;4.13;;;22.00;58.90;;;;;;5073092;28;20041;-79
2023/03/13 12:35:36;;;;;;;14.45;3.95;;;22.00;57.50;;;;;;4991177;28;20089;-79
2023/03/13 12:38:14;;;;;;;19.63;4.70;;;22.10;58.90;;;;;;5060679;28;20439;-80
2023/03/13 12:41:13;;;;;;;12.27;3.58;;;22.10;57.50;;;;;;5073280;28;20037;-80
2023/03/13 12:43:43;;;;;;;13.20;3.60;;;22.10;57.00;;;;;;5072815;28;20044;-80
2023/03/13 12:46:31;;;;;;;10.30;3.38;;;22.10;57.80;;;;;;5072808;28;20036;-79
2023/03/13 12:49:32;;;;;;;13.20;3.30;;;22.10;57.00;;;;;;5073047;28;20147;-79
2023/03/13 12:52:25;;;;;;;11.75;3.22;;;22.10;56.80;;;;;;5068571;28;20051;-80
2023/03/13 12:55:40;;;;;;;17.23;4.07;;;22.10;56.40;;;;;;5072896;28;20040;-80
2023/03/13 12:58:43;;;;;;;11.80;3.40;;;22.10;56.00;;;;;;5054690;28;20095;-80